Time;durP1;ratioP1;P1;durP2;ratioP2;P2;SDS_P1;SDS_P2;PMS_P1;PMS_P2;Temp;Humidity;BMP_temperature;BMP_pressure;BME280_temperature;BME280_humidity;BME280_pressure;Samples;Min_cycle;Max_cycle;Signal;HPM_P1;HPM_P2
2023/08/03 00:02:22;;;;;;;6.97;1.50;;;16.40;99.90;;;;;;4957574;28;20054;-70
2023/08/03 00:04:48;;;;;;;10.38;1.60;;;16.40;99.90;;;;;;4953052;28;20050;-70
2023/08/03 00:07:13;;;;;;;4.95;0.90;;;16.30;99.90;;;;;;4955793;28;20031;-72
2023/08/03 00:09:40;;;;;;;5.63;1.20;;;16.40;99.90;;;;;;4952022;28;20089;-71
2023/08/03 00:12:06;;;;;;;4.55;1.08;;;16.40;99.90;;;;;;4955034;28;20035;-71
2023/08/03 00:14:32;;;;;;;8.75;1.25;;;16.40;99.90;;;;;;4957246;28;20063;-71
2023/08/03 00:16:57;;;;;;;6.03;1.60;;;16.50;99.90;;;;;;4959085;28;20070;-70
2023/08/03 00:19:23;;;;;;;10.18;1.40;;;16.40;99.90;;;;;;4957459;28;20036;-70
2023/08/03 00:21:48;;;;;;;5.95;1.23;;;16.50;99.90;;;;;;4959890;28;20041;-72
2023/08/03 00:24:14;;;;;;;8.10;1.50;;;16.50;99.90;;;;;;4959370;28;20053;-71
2023/08/03 00:26:39;;;;;;;9.65;1.58;;;16.50;99.90;;;;;;4956726;28;20502;-69
2023/08/03 00:29:05;;;;;;;9.48;1.27;;;16.50;99.90;;;;;;4956680;28;20046;-72
2023/08/03 00:31:30;;;;;;;6.50;1.80;;;16.50;99.90;;;;;;4958182;28;20039;-71
2023/08/03 00:33:56;;;;;;;10.23;1.90;;;16.50;99.90;;;;;;4956904;28;20035;-70
2023/08/03 00:36:21;;;;;;;10.52;1.98;;;16.50;99.90;;;;;;4958620;28;20505;-70
2023/08/03 00:38:47;;;;;;;12.48;2.13;;;16.50;99.90;;;;;;4967729;28;20096;-70
2023/08/03 00:41:12;;;;;;;9.85;1.63;;;16.50;99.90;;;;;;4960808;28;20102;-71
2023/08/03 00:43:38;;;;;;;9.63;1.73;;;16.60;99.90;;;;;;4958082;28;20431;-70
2023/08/03 00:46:04;;;;;;;4.88;1.38;;;16.60;99.90;;;;;;4962864;28;20097;-71
2023/08/03 00:48:29;;;;;;;6.57;1.65;;;16.60;99.90;;;;;;4964773;28;20039;-71
2023/08/03 00:50:55;;;;;;;11.93;1.80;;;16.60;99.90;;;;;;4957262;28;20103;-70
2023/08/03 00:53:21;;;;;;;10.98;1.70;;;16.60;99.90;;;;;;4964247;28;20414;-70
2023/08/03 00:55:46;;;;;;;10.13;1.30;;;16.70;99.90;;;;;;4961231;28;20038;-72
2023/08/03 00:58:12;;;;;;;8.52;0.82;;;16.70;99.90;;;;;;4959965;28;20558;-70
2023/08/03 01:00:37;;;;;;;9.38;0.82;;;16.70;99.90;;;;;;4959034;28;20100;-70
2023/08/03 01:03:03;;;;;;;7.63;0.93;;;16.70;99.90;;;;;;4958085;28;20042;-71
2023/08/03 01:05:30;;;;;;;5.88;0.77;;;16.70;99.90;;;;;;4958461;28;20132;-70
2023/08/03 01:07:56;;;;;;;8.73;0.90;;;16.60;99.90;;;;;;4954707;28;20039;-70
2023/08/03 01:10:21;;;;;;;12.05;0.98;;;16.60;99.90;;;;;;4958250;28;20386;-69
2023/08/03 01:12:47;;;;;;;8.00;1.00;;;16.70;99.90;;;;;;4953660;28;20093;-70
2023/08/03 01:15:13;;;;;;;4.90;0.90;;;16.60;99.90;;;;;;4958294;28;20035;-71
2023/08/03 01:17:38;;;;;;;4.90;1.15;;;16.60;99.90;;;;;;4956042;28;20118;-71
2023/08/03 01:20:04;;;;;;;6.90;1.10;;;16.60;99.90;;;;;;4957867;28;20487;-70
2023/08/03 01:22:37;;;;;;;5.95;1.00;;;16.60;99.90;;;;;;4975920;28;20121;-70
2023/08/03 01:25:02;;;;;;;7.53;1.15;;;16.60;99.90;;;;;;4958482;28;20043;-69
2023/08/03 01:27:28;;;;;;;6.25;1.10;;;16.60;99.90;;;;;;4958585;28;20043;-71
2023/08/03 01:29:53;;;;;;;3.53;1.00;;;16.60;99.90;;;;;;4954771;28;20098;-72
2023/08/03 01:32:19;;;;;;;3.85;1.27;;;16.60;99.90;;;;;;4959677;28;20038;-70
2023/08/03 01:34:45;;;;;;;9.68;1.42;;;16.60;99.90;;;;;;4953428;28;20034;-70
2023/08/03 01:37:10;;;;;;;9.32;1.55;;;16.50;99.90;;;;;;4957619;28;20097;-69
2023/08/03 01:39:36;;;;;;;9.23;1.50;;;16.50;99.90;;;;;;4956925;28;20035;-71
2023/08/03 01:42:01;;;;;;;8.82;1.65;;;16.50;99.90;;;;;;4955799;28;20035;-71
2023/08/03 01:44:30;;;;;;;10.80;1.58;;;16.50;99.90;;;;;;4957651;28;20043;-72
2023/08/03 01:46:58;;;;;;;9.38;2.15;;;16.50;99.90;;;;;;4955090;28;20031;-71
2023/08/03 01:49:27;;;;;;;7.05;1.50;;;16.50;99.90;;;;;;4958481;28;20080;-70
2023/08/03 01:51:52;;;;;;;8.82;1.60;;;16.50;99.90;;;;;;4955441;28;20027;-70
2023/08/03 01:54:18;;;;;;;5.95;1.85;;;16.50;99.90;;;;;;4957477;28;20117;-71
2023/08/03 01:56:44;;;;;;;7.30;1.38;;;16.50;99.90;;;;;;4959899;28;20035;-71
2023/08/03 01:59:10;;;;;;;5.68;1.67;;;16.50;99.90;;;;;;4959231;28;20027;-71
2023/08/03 02:01:36;;;;;;;12.35;2.13;;;16.50;99.90;;;;;;4956807;28;20077;-72
2023/08/03 02:04:02;;;;;;;12.43;1.65;;;16.50;99.90;;;;;;4955657;28;20546;-70
2023/08/03 02:06:27;;;;;;;7.65;1.85;;;16.50;99.90;;;;;;4957508;28;20038;-70
2023/08/03 02:08:53;;;;;;;8.10;1.60;;;16.50;99.90;;;;;;4954175;28;20089;-70
2023/08/03 02:11:19;;;;;;;15.68;2.60;;;16.50;99.90;;;;;;4957664;28;20051;-72
2023/08/03 02:13:44;;;;;;;6.18;1.50;;;16.50;99.90;;;;;;4956854;28;20062;-73
2023/08/03 02:16:10;;;;;;;8.40;1.65;;;16.40;99.90;;;;;;4954410;28;20047;-72
2023/08/03 02:18:39;;;;;;;6.95;1.48;;;16.30;99.90;;;;;;4957128;28;20035;-70
2023/08/03 02:21:05;;;;;;;6.75;1.40;;;16.30;99.90;;;;;;4955674;28;20035;-71
2023/08/03 02:23:31;;;;;;;9.65;1.40;;;16.30;99.90;;;;;;4956023;28;20036;-70
2023/08/03 02:25:57;;;;;;;7.60;2.00;;;16.30;99.90;;;;;;4956623;28;20061;-71
2023/08/03 02:28:23;;;;;;;9.25;1.17;;;16.30;99.90;;;;;;4959788;28;20443;-70
2023/08/03 02:30:49;;;;;;;9.43;1.63;;;16.30;99.90;;;;;;4954705;28;20043;-71
2023/08/03 02:33:14;;;;;;;7.93;1.48;;;16.30;99.90;;;;;;4957561;28;20042;-72
2023/08/03 03:27:27;;;;;;;8.85;2.33;;;16.40;99.90;;;;;;6024698;23;19916;-72
2023/08/03 03:29:52;;;;;;;4.93;1.25;;;16.50;99.90;;;;;;5076095;28;20553;-74
2023/08/03 03:32:18;;;;;;;6.05;1.45;;;16.40;99.90;;;;;;5078555;28;20024;-74
2023/08/03 03:34:43;;;;;;;5.07;1.00;;;16.40;99.90;;;;;;5078192;28;20115;-74
2023/08/03 03:37:09;;;;;;;5.32;1.35;;;16.40;99.90;;;;;;5080054;28;20077;-74
2023/08/03 03:39:35;;;;;;;6.95;1.20;;;16.40;99.90;;;;;;5081301;28;20024;-74
2023/08/03 03:42:00;;;;;;;4.05;1.50;;;16.30;99.90;;;;;;5059751;28;20512;-73
2023/08/03 03:44:26;;;;;;;5.68;1.30;;;16.30;99.90;;;;;;5059918;28;20049;-73
2023/08/03 03:46:52;;;;;;;8.65;1.52;;;16.40;99.90;;;;;;5071407;28;20028;-74
2023/08/03 03:49:17;;;;;;;2.72;1.40;;;16.30;99.90;;;;;;5075339;28;20480;-74
2023/08/03 03:51:43;;;;;;;3.72;1.50;;;16.40;99.90;;;;;;5056965;28;20033;-74
2023/08/03 03:54:09;;;;;;;5.05;1.40;;;16.30;99.90;;;;;;5074838;28;20032;-74
2023/08/03 03:56:35;;;;;;;6.10;1.63;;;16.30;99.90;;;;;;5057370;28;20086;-74
2023/08/03 03:59:00;;;;;;;3.50;1.63;;;16.40;99.90;;;;;;5076493;28;20480;-74
2023/08/03 04:01:26;;;;;;;4.75;1.45;;;16.30;99.90;;;;;;5062997;28;20127;-73
2023/08/03 04:03:52;;;;;;;6.93;1.75;;;16.40;99.90;;;;;;5075281;28;20028;-74
2023/08/03 04:06:17;;;;;;;9.48;2.08;;;16.40;99.90;;;;;;5081875;28;20113;-73
2023/08/03 04:08:43;;;;;;;5.20;1.67;;;16.40;99.90;;;;;;5059378;28;20062;-74
2023/08/03 04:11:08;;;;;;;6.20;1.50;;;16.40;99.90;;;;;;5075642;28;20040;-74
2023/08/03 04:13:34;;;;;;;7.65;1.10;;;16.40;99.90;;;;;;5078714;28;20501;-74
2023/08/03 04:16:00;;;;;;;7.78;1.27;;;16.40;99.90;;;;;;5075217;28;20071;-73
2023/08/03 04:18:27;;;;;;;6.53;1.00;;;16.30;99.90;;;;;;5059751;28;20075;-74
2023/08/03 04:20:53;;;;;;;5.60;0.80;;;16.30;99.90;;;;;;5077879;28;20029;-74
2023/08/03 04:23:19;;;;;;;7.30;0.98;;;16.30;99.90;;;;;;5060867;28;20039;-73
2023/08/03 04:25:44;;;;;;;6.05;1.83;;;16.30;99.90;;;;;;5082491;28;20086;-73
2023/08/03 04:28:10;;;;;;;7.60;0.75;;;16.30;99.90;;;;;;5074315;28;20040;-74
2023/08/03 04:30:35;;;;;;;15.98;1.65;;;16.30;99.90;;;;;;5079338;28;20395;-74
2023/08/03 04:33:01;;;;;;;5.43;0.90;;;16.30;99.90;;;;;;5059369;28;20248;-73
2023/08/03 04:35:27;;;;;;;12.70;1.00;;;16.30;99.90;;;;;;5058335;28;20509;-73
2023/08/03 04:37:52;;;;;;;5.20;0.93;;;16.30;99.90;;;;;;5076016;28;20097;-73
2023/08/03 04:40:18;;;;;;;10.07;0.77;;;16.30;99.90;;;;;;5074926;28;20074;-74
2023/08/03 04:42:43;;;;;;;5.22;0.95;;;16.30;99.90;;;;;;5076976;28;20036;-73
2023/08/03 04:45:09;;;;;;;9.20;0.80;;;16.30;99.90;;;;;;5075510;28;20048;-74
2023/08/03 04:47:35;;;;;;;9.82;0.77;;;16.30;99.90;;;;;;5060686;28;20115;-74
2023/08/03 04:50:00;;;;;;;11.25;1.15;;;16.30;99.90;;;;;;5074385;28;20040;-74
2023/08/03 04:52:26;;;;;;;8.70;1.30;;;16.30;99.90;;;;;;5077944;28;20028;-74
2023/08/03 04:54:51;;;;;;;7.28;1.02;;;16.30;99.90;;;;;;5075312;28;20042;-74
2023/08/03 04:57:17;;;;;;;3.72;0.57;;;16.30;99.90;;;;;;5057471;28;20060;-73
2023/08/03 04:59:42;;;;;;;8.23;1.20;;;16.30;99.90;;;;;;5077765;28;20504;-74
2023/08/03 05:02:08;;;;;;;15.63;1.80;;;16.30;99.90;;;;;;5079163;28;20039;-74
2023/08/03 05:04:34;;;;;;;9.88;1.27;;;16.30;99.90;;;;;;5063524;28;20078;-74
2023/08/03 05:06:59;;;;;;;10.90;1.65;;;16.40;99.90;;;;;;5077991;28;20311;-73
2023/08/03 05:09:26;;;;;;;13.05;0.90;;;16.40;99.90;;;;;;5063045;28;20040;-73
2023/08/03 05:11:51;;;;;;;7.03;1.05;;;16.40;99.90;;;;;;5078937;28;20086;-75
2023/08/03 05:14:17;;;;;;;10.57;1.70;;;16.40;99.90;;;;;;5061776;28;20044;-74
2023/08/03 05:16:42;;;;;;;7.25;1.15;;;16.40;99.90;;;;;;5062003;28;20079;-76
2023/08/03 05:19:08;;;;;;;10.27;2.25;;;16.40;99.90;;;;;;5060837;28;20032;-74
2023/08/03 05:21:34;;;;;;;11.13;2.28;;;16.40;99.90;;;;;;5082017;28;20085;-74
2023/08/03 05:23:59;;;;;;;15.88;2.63;;;16.40;99.90;;;;;;5057761;28;20127;-72
2023/08/03 05:26:26;;;;;;;7.97;1.55;;;16.40;99.90;;;;;;5080135;28;20036;-72
2023/08/03 05:28:51;;;;;;;12.45;1.33;;;16.40;99.90;;;;;;5062243;28;20431;-73
2023/08/03 05:31:17;;;;;;;10.85;2.97;;;16.40;99.90;;;;;;5058737;28;20557;-74
2023/08/03 05:33:43;;;;;;;9.32;1.23;;;16.40;99.90;;;;;;5079281;28;20063;-73
2023/08/03 05:36:09;;;;;;;9.23;1.02;;;16.40;99.90;;;;;;5078524;28;20391;-74
2023/08/03 05:38:34;;;;;;;7.10;0.90;;;16.40;99.90;;;;;;5081527;28;20032;-73
2023/08/03 05:41:00;;;;;;;9.43;0.90;;;16.40;99.90;;;;;;5075778;28;20040;-74
2023/08/03 05:43:27;;;;;;;7.85;0.95;;;16.40;99.90;;;;;;5080928;28;20055;-73
2023/08/03 05:46:02;;;;;;;6.38;0.93;;;16.40;99.90;;;;;;5077774;28;20028;-74
2023/08/03 05:48:30;;;;;;;8.70;1.58;;;16.40;99.90;;;;;;5059283;28;20074;-73
2023/08/03 05:50:57;;;;;;;5.07;1.00;;;16.40;99.90;;;;;;5074057;28;20028;-74
2023/08/03 05:53:23;;;;;;;13.55;1.42;;;16.40;99.90;;;;;;5079832;28;20032;-74
2023/08/03 05:55:48;;;;;;;12.93;1.33;;;16.40;99.90;;;;;;5074610;28;20038;-74
2023/08/03 05:58:16;;;;;;;11.88;1.35;;;16.50;99.90;;;;;;5058033;28;20559;-74
2023/08/03 06:00:46;;;;;;;6.47;1.13;;;16.50;99.90;;;;;;5060508;28;20032;-75
2023/08/03 06:03:13;;;;;;;9.75;1.27;;;16.60;99.90;;;;;;5078324;28;20087;-73
2023/08/03 06:05:39;;;;;;;7.28;1.10;;;16.50;99.90;;;;;;5079035;28;20040;-74
2023/08/03 06:08:23;;;;;;;11.25;1.20;;;16.60;99.90;;;;;;5075696;28;20040;-72
2023/08/03 06:10:53;;;;;;;9.65;1.40;;;16.60;99.90;;;;;;5075188;28;20051;-74
2023/08/03 06:13:43;;;;;;;5.47;0.85;;;16.50;99.90;;;;;;5076178;28;20098;-73
2023/08/03 06:16:10;;;;;;;;;;;16.60;99.90;;;;;;5056368;28;20051;-72
2023/08/03 06:18:58;;;;;;;8.43;1.00;;;16.60;99.90;;;;;;5060991;28;20275;-73
2023/08/03 06:21:25;;;;;;;12.57;1.42;;;16.60;99.90;;;;;;5060570;28;20028;-73
2023/08/03 06:23:53;;;;;;;8.05;1.48;;;16.60;99.90;;;;;;5076304;28;20031;-73
2023/08/03 06:26:19;;;;;;;7.20;1.02;;;16.70;99.90;;;;;;5078178;28;20631;-73
2023/08/03 06:28:46;;;;;;;6.38;0.90;;;16.70;99.90;;;;;;5076913;28;20395;-74
2023/08/03 06:31:16;;;;;;;9.25;1.25;;;16.60;99.90;;;;;;5076888;28;20112;-72
2023/08/03 06:33:44;;;;;;;7.80;0.75;;;16.70;99.90;;;;;;5079025;28;20045;-74
2023/08/03 06:36:19;;;;;;;8.00;1.00;;;16.70;99.90;;;;;;5059031;28;20107;-75
2023/08/03 06:38:45;;;;;;;9.07;1.45;;;16.60;99.90;;;;;;5077962;28;20039;-72
2023/08/03 06:41:11;;;;;;;9.55;1.42;;;16.60;99.90;;;;;;5067245;28;20034;-72
2023/08/03 06:43:37;;;;;;;7.05;0.90;;;16.70;99.90;;;;;;5080110;28;20036;-73
2023/08/03 06:46:04;;;;;;;8.02;1.27;;;16.70;99.90;;;;;;5052710;28;20041;-73
2023/08/03 06:48:29;;;;;;;5.03;1.55;;;16.70;99.90;;;;;;5075750;28;20036;-71
2023/08/03 06:50:55;;;;;;;18.88;1.67;;;16.80;99.90;;;;;;5059641;28;20419;-71
2023/08/03 06:53:22;;;;;;;7.72;0.80;;;16.90;99.90;;;;;;5050729;28;20395;-74
2023/08/03 06:55:48;;;;;;;15.23;1.77;;;16.90;99.90;;;;;;5049466;28;20032;-73
2023/08/03 06:58:20;;;;;;;14.85;1.83;;;17.00;99.90;;;;;;5075107;28;20044;-74
2023/08/03 07:00:46;;;;;;;5.43;0.98;;;17.10;99.90;;;;;;5063936;28;20102;-73
2023/08/03 07:03:13;;;;;;;8.13;1.27;;;17.10;99.90;;;;;;5072428;28;20032;-73
2023/08/03 07:05:39;;;;;;;9.63;1.10;;;17.00;99.90;;;;;;5047081;28;20500;-73
2023/08/03 07:08:05;;;;;;;9.68;1.15;;;17.00;99.90;;;;;;5049745;28;20119;-73
2023/08/03 07:10:30;;;;;;;8.90;1.40;;;17.10;99.90;;;;;;5047042;28;20119;-72
2023/08/03 07:12:56;;;;;;;12.70;1.60;;;17.20;99.90;;;;;;5064043;28;20396;-72
2023/08/03 07:15:22;;;;;;;14.73;1.60;;;17.20;99.90;;;;;;5046962;28;20047;-73
2023/08/03 07:17:47;;;;;;;9.45;1.52;;;17.20;99.90;;;;;;5045882;28;20036;-74
2023/08/03 07:20:14;;;;;;;9.07;1.23;;;17.30;99.90;;;;;;5046480;28;20040;-72
2023/08/03 07:22:39;;;;;;;12.30;1.80;;;17.40;99.90;;;;;;5046996;28;20158;-73
2023/08/03 07:25:06;;;;;;;5.15;0.88;;;17.40;99.90;;;;;;5065962;28;20128;-75
2023/08/03 07:27:32;;;;;;;3.28;0.70;;;17.40;99.90;;;;;;5064091;28;20566;-74
2023/08/03 07:29:58;;;;;;;5.53;0.73;;;17.50;99.90;;;;;;5066910;28;20056;-73
2023/08/03 07:32:24;;;;;;;6.95;1.27;;;17.60;99.90;;;;;;5064685;28;20063;-73
2023/08/03 07:34:50;;;;;;;9.10;2.17;;;17.70;99.90;;;;;;5046360;28;20060;-75
2023/08/03 07:37:15;;;;;;;9.13;0.95;;;17.80;99.90;;;;;;5065625;28;20484;-72
2023/08/03 07:39:41;;;;;;;7.53;0.88;;;17.80;99.90;;;;;;5047684;28;20492;-75
2023/08/03 07:42:07;;;;;;;10.45;0.95;;;17.80;99.90;;;;;;5067324;28;20036;-72
2023/08/03 07:44:32;;;;;;;3.67;0.90;;;17.80;99.90;;;;;;5065844;28;20071;-74
2023/08/03 07:46:58;;;;;;;7.32;1.25;;;17.80;99.90;;;;;;5068425;28;20081;-72
2023/08/03 07:49:23;;;;;;;4.57;1.00;;;17.80;99.90;;;;;;5061621;28;20040;-74
2023/08/03 07:51:49;;;;;;;5.13;1.23;;;17.90;99.90;;;;;;5063204;28;20040;-73
2023/08/03 07:54:15;;;;;;;9.98;1.23;;;18.00;99.90;;;;;;5064262;28;20047;-72
2023/08/03 07:56:41;;;;;;;3.63;1.33;;;18.00;99.90;;;;;;5063908;28;20032;-73
2023/08/03 07:59:10;;;;;;;14.75;1.48;;;18.00;99.90;;;;;;5063784;28;20944;-73
2023/08/03 08:01:36;;;;;;;4.82;0.95;;;18.00;99.90;;;;;;5064351;28;20049;-73
2023/08/03 08:04:02;;;;;;;8.02;0.88;;;18.10;99.90;;;;;;5045293;28;20033;-72
2023/08/03 08:06:28;;;;;;;5.05;1.50;;;18.10;99.90;;;;;;5046415;28;20036;-73
2023/08/03 08:08:54;;;;;;;5.10;0.80;;;18.10;99.90;;;;;;5063631;28;20039;-72
2023/08/03 08:11:20;;;;;;;9.43;2.35;;;18.10;99.90;;;;;;5071312;28;20058;-73
2023/08/03 08:13:45;;;;;;;3.45;0.85;;;18.30;99.90;;;;;;5049381;28;20059;-74
2023/08/03 08:16:13;;;;;;;7.10;1.08;;;18.20;99.90;;;;;;5064425;28;20045;-72
2023/08/03 08:18:38;;;;;;;4.85;1.10;;;18.20;99.90;;;;;;5075668;28;20029;-73
2023/08/03 08:21:13;;;;;;;4.50;0.60;;;18.20;99.90;;;;;;5068020;28;20036;-73
2023/08/03 08:23:39;;;;;;;6.47;0.80;;;18.20;99.90;;;;;;5067635;28;20056;-71
2023/08/03 08:26:12;;;;;;;8.50;0.80;;;18.30;99.90;;;;;;5045143;28;20029;-73
2023/08/03 08:28:40;;;;;;;3.72;0.50;;;18.40;99.90;;;;;;5045576;28;20097;-74
2023/08/03 08:31:05;;;;;;;2.88;0.50;;;18.40;99.90;;;;;;5047307;28;20095;-72
2023/08/03 08:33:31;;;;;;;2.88;0.60;;;18.50;99.90;;;;;;5055880;28;20459;-72
2023/08/03 08:35:57;;;;;;;7.00;0.80;;;18.50;99.90;;;;;;5049390;28;20043;-73
2023/08/03 08:38:22;;;;;;;6.28;0.75;;;18.40;99.90;;;;;;5049271;28;20128;-73
2023/08/03 08:40:48;;;;;;;5.63;0.85;;;18.40;99.90;;;;;;5061030;28;20031;-74
2023/08/03 08:43:17;;;;;;;1.92;0.52;;;18.40;99.90;;;;;;5068348;28;20119;-73
2023/08/03 08:45:42;;;;;;;7.10;1.08;;;18.40;99.90;;;;;;5067098;28;20506;-75
2023/08/03 08:48:08;;;;;;;3.88;0.75;;;18.40;99.90;;;;;;5077777;28;20028;-73
2023/08/03 08:50:35;;;;;;;3.28;0.63;;;18.50;99.90;;;;;;5067743;28;20075;-73
2023/08/03 08:53:00;;;;;;;5.03;0.85;;;18.50;99.90;;;;;;5048187;28;20158;-73
2023/08/03 08:55:28;;;;;;;4.13;1.05;;;18.70;99.90;;;;;;5068543;28;20482;-73
2023/08/03 08:57:55;;;;;;;2.97;0.40;;;18.80;99.90;;;;;;5066022;28;20029;-73
2023/08/03 09:00:24;;;;;;;7.82;0.60;;;19.00;99.90;;;;;;5049391;28;20507;-72
2023/08/03 09:02:56;;;;;;;1.77;0.47;;;19.00;99.90;;;;;;5046772;28;20040;-72
2023/08/03 09:05:24;;;;;;;2.97;0.68;;;19.10;99.90;;;;;;5067038;28;20391;-74
2023/08/03 09:08:11;;;;;;;2.72;0.38;;;19.20;99.90;;;;;;5046485;28;20217;-72
2023/08/03 09:10:51;;;;;;;2.78;0.52;;;19.30;99.90;;;;;;5071371;28;20096;-73
2023/08/03 09:13:36;;;;;;;5.05;0.70;;;19.40;99.90;;;;;;5051732;28;20101;-74
2023/08/03 09:16:03;;;;;;;3.67;0.52;;;19.60;99.90;;;;;;5067367;28;20040;-73
2023/08/03 09:18:30;;;;;;;2.47;0.40;;;19.70;99.90;;;;;;5070365;28;20111;-75
2023/08/03 09:21:16;;;;;;;8.93;1.33;;;19.90;99.90;;;;;;5054496;28;20095;-74
2023/08/03 09:23:41;;;;;;;3.80;0.30;;;20.10;99.90;;;;;;5065171;28;20158;-74
2023/08/03 09:26:08;;;;;;;13.63;0.82;;;20.50;99.90;;;;;;5068819;28;20115;-74
2023/08/03 09:28:42;;;;;;;5.00;0.77;;;20.60;99.90;;;;;;5071688;28;20039;-74
2023/08/03 09:31:10;;;;;;;2.05;0.40;;;20.60;99.90;;;;;;5069889;28;20048;-73
2023/08/03 09:33:36;;;;;;;4.53;0.70;;;20.50;99.90;;;;;;5075320;28;20033;-73
2023/08/03 09:36:14;;;;;;;2.60;0.65;;;20.30;99.90;;;;;;5065357;28;20051;-74
2023/08/03 09:38:40;;;;;;;1.88;0.40;;;20.10;99.90;;;;;;5058498;28;20698;-73
2023/08/03 09:41:08;;;;;;;3.17;0.68;;;19.90;99.90;;;;;;5065670;28;20028;-73
2023/08/03 09:43:34;;;;;;;9.40;1.13;;;19.70;99.90;;;;;;5045809;28;20033;-72
2023/08/03 09:46:00;;;;;;;6.43;0.63;;;19.60;99.90;;;;;;5045988;28;20033;-74
2023/08/03 09:48:26;;;;;;;6.15;1.15;;;19.70;99.90;;;;;;5052389;28;20033;-72
2023/08/03 09:50:56;;;;;;;7.72;0.90;;;19.90;99.90;;;;;;5071467;28;20039;-72
2023/08/03 09:53:28;;;;;;;6.55;1.13;;;20.00;99.90;;;;;;5066845;28;20032;-74
2023/08/03 09:56:00;;;;;;;6.57;0.70;;;20.30;99.90;;;;;;5064010;28;20035;-72
2023/08/03 09:58:49;;;;;;;3.05;0.77;;;20.60;99.90;;;;;;5068854;28;20044;-72
2023/08/03 10:01:22;;;;;;;3.03;0.70;;;20.90;99.90;;;;;;5043330;28;20622;-72
2023/08/03 10:03:54;;;;;;;2.92;0.40;;;20.80;99.90;;;;;;5066530;28;20036;-73
2023/08/03 10:06:27;;;;;;;5.45;0.57;;;20.50;99.90;;;;;;5051174;28;20048;-72
2023/08/03 10:08:56;;;;;;;3.70;0.30;;;20.50;99.90;;;;;;5055328;28;20027;-75
2023/08/03 10:11:29;;;;;;;3.20;0.53;;;20.70;99.90;;;;;;5062579;28;20388;-75
2023/08/03 10:13:58;;;;;;;2.13;0.50;;;20.80;99.90;;;;;;5061132;28;20037;-73
2023/08/03 10:16:24;;;;;;;5.90;0.80;;;20.80;99.90;;;;;;5048793;28;20466;-72
2023/08/03 10:18:50;;;;;;;3.10;0.30;;;21.00;99.90;;;;;;5051544;28;20033;-73
2023/08/03 10:21:16;;;;;;;1.58;0.20;;;21.10;99.90;;;;;;5064418;28;20396;-72
2023/08/03 10:24:08;;;;;;;3.13;0.70;;;21.20;99.90;;;;;;5071318;28;20047;-73
2023/08/03 10:26:34;;;;;;;3.15;1.00;;;21.10;99.90;;;;;;5047563;28;20036;-72
2023/08/03 10:28:59;;;;;;;4.03;0.40;;;20.80;99.90;;;;;;5065995;28;20587;-73
2023/08/03 10:31:25;;;;;;;2.85;0.30;;;20.50;99.90;;;;;;5066730;28;20551;-72
2023/08/03 10:33:51;;;;;;;1.65;0.30;;;20.40;99.90;;;;;;5062303;28;20041;-72
2023/08/03 10:36:29;;;;;;;5.40;0.63;;;20.50;99.90;;;;;;5070212;28;20531;-72
2023/08/03 10:38:59;;;;;;;5.55;0.55;;;20.50;99.90;;;;;;5070365;28;20044;-73
2023/08/03 10:41:27;;;;;;;2.35;0.45;;;20.70;99.90;;;;;;5071932;28;20533;-71
2023/08/03 10:44:12;;;;;;;2.55;0.40;;;20.80;99.90;;;;;;5066599;28;20086;-74
2023/08/03 10:46:38;;;;;;;2.30;0.40;;;20.70;99.90;;;;;;5066587;28;20047;-74
2023/08/03 10:49:19;;;;;;;3.63;0.80;;;20.20;99.90;;;;;;5052446;28;20086;-73
2023/08/03 10:52:14;;;;;;;2.42;0.35;;;19.60;99.90;;;;;;5066904;28;20122;-75
2023/08/03 10:54:39;;;;;;;5.22;0.90;;;19.20;99.90;;;;;;5052105;28;20032;-74
2023/08/03 10:57:29;;;;;;;4.88;0.75;;;18.90;99.90;;;;;;5074677;28;20037;-74
2023/08/03 10:59:58;;;;;;;3.03;0.52;;;18.80;99.90;;;;;;5054175;28;20447;-74
2023/08/03 11:02:31;;;;;;;4.88;0.65;;;18.70;99.90;;;;;;5057582;28;20114;-73
2023/08/03 11:05:02;;;;;;;1.85;0.55;;;18.80;99.90;;;;;;5045515;28;20391;-74
2023/08/03 11:07:32;;;;;;;3.22;0.77;;;18.80;99.90;;;;;;5075230;28;20028;-72
2023/08/03 11:10:00;;;;;;;8.88;1.65;;;18.80;99.90;;;;;;5074241;28;20449;-73
2023/08/03 11:12:27;;;;;;;4.40;0.55;;;19.00;99.90;;;;;;5070111;28;20036;-74
2023/08/03 11:14:55;;;;;;;2.75;1.05;;;19.10;99.90;;;;;;5065565;28;20033;-73
2023/08/03 11:17:26;;;;;;;7.07;0.88;;;19.20;99.90;;;;;;5067601;28;20147;-74
2023/08/03 11:19:53;;;;;;;6.13;1.00;;;19.10;99.90;;;;;;5049279;28;20040;-75
2023/08/03 11:22:23;;;;;;;1.08;0.40;;;18.90;99.90;;;;;;5067938;28;20119;-73
2023/08/03 11:24:50;;;;;;;;;;;18.70;99.90;;;;;;5068850;28;20033;-74
2023/08/03 11:27:17;;;;;;;4.53;0.57;;;18.70;99.90;;;;;;5063990;28;19923;-74
2023/08/03 11:29:42;;;;;;;3.85;0.60;;;18.70;99.90;;;;;;5064250;28;20068;-73
2023/08/03 11:32:11;;;;;;;3.55;0.60;;;18.80;99.90;;;;;;5045877;28;20107;-72
2023/08/03 11:34:38;;;;;;;4.57;0.52;;;18.90;99.90;;;;;;5070361;28;20025;-72
2023/08/03 11:37:03;;;;;;;3.75;0.50;;;19.00;99.90;;;;;;5063609;28;20062;-73
2023/08/03 11:39:30;;;;;;;5.18;0.40;;;19.00;99.90;;;;;;5063852;28;20507;-74
2023/08/03 11:41:56;;;;;;;1.65;0.57;;;18.80;99.90;;;;;;5063342;28;20609;-72
2023/08/03 11:44:23;;;;;;;2.67;0.60;;;18.70;99.90;;;;;;5054650;28;20032;-73
2023/08/03 11:47:00;;;;;;;8.07;1.15;;;18.60;99.90;;;;;;5062861;28;20103;-73
2023/08/03 11:49:26;;;;;;;2.70;0.70;;;18.50;99.90;;;;;;5061451;28;20443;-75
2023/08/03 11:51:56;;;;;;;4.72;0.75;;;18.70;99.90;;;;;;5051862;28;20062;-73
2023/08/03 11:54:24;;;;;;;4.40;0.77;;;18.70;99.90;;;;;;5065277;28;20043;-72
2023/08/03 11:56:50;;;;;;;3.97;0.90;;;18.60;99.90;;;;;;5065693;28;20063;-75
2023/08/03 11:59:15;;;;;;;5.80;0.90;;;18.60;99.90;;;;;;5064275;28;20119;-73
2023/08/03 12:01:45;;;;;;;11.00;1.60;;;18.60;99.90;;;;;;5067929;28;20127;-74
2023/08/03 12:04:11;;;;;;;8.15;0.73;;;18.70;99.90;;;;;;5061517;28;20036;-73
2023/08/03 12:06:54;;;;;;;2.90;0.70;;;18.90;99.90;;;;;;5064987;28;20036;-72
2023/08/03 12:09:27;;;;;;;3.28;0.98;;;19.10;99.90;;;;;;5048160;28;20037;-72
2023/08/03 12:12:03;;;;;;;3.53;0.80;;;19.30;99.90;;;;;;5067260;28;20075;-73
2023/08/03 12:14:29;;;;;;;7.90;1.35;;;19.30;99.90;;;;;;5067983;28;20071;-73
2023/08/03 12:16:54;;;;;;;4.30;1.20;;;19.20;99.90;;;;;;5070386;28;20028;-72
2023/08/03 12:19:20;;;;;;;4.43;0.80;;;19.10;99.90;;;;;;5068222;28;20544;-73
2023/08/03 12:21:47;;;;;;;11.90;1.30;;;19.10;99.90;;;;;;5052329;28;20074;-74
2023/08/03 12:24:13;;;;;;;7.13;1.27;;;19.20;99.90;;;;;;5068047;28;20040;-72
2023/08/03 12:26:41;;;;;;;5.30;1.13;;;19.50;99.90;;;;;;5071293;28;20399;-73
2023/08/03 12:29:07;;;;;;;6.30;1.35;;;19.60;99.90;;;;;;5065308;28;20424;-72
2023/08/03 12:31:33;;;;;;;5.43;0.98;;;19.70;99.90;;;;;;5056737;28;20037;-72
2023/08/03 12:33:59;;;;;;;4.72;1.05;;;19.70;99.90;;;;;;5067032;28;20206;-74
2023/08/03 12:36:26;;;;;;;5.35;0.90;;;19.70;99.90;;;;;;5048398;28;20127;-74
2023/08/03 12:38:52;;;;;;;6.95;1.48;;;19.80;99.90;;;;;;5068090;28;20033;-72
2023/08/03 12:41:19;;;;;;;4.95;1.00;;;19.70;99.90;;;;;;5059849;28;20040;-73
2023/08/03 12:43:49;;;;;;;6.90;0.82;;;19.70;99.90;;;;;;5075822;28;20152;-73
2023/08/03 12:46:15;;;;;;;4.85;0.93;;;19.80;99.90;;;;;;5053437;28;20567;-72
2023/08/03 12:48:40;;;;;;;2.60;0.68;;;19.90;99.90;;;;;;5060085;28;20040;-73
2023/08/03 12:51:06;;;;;;;6.97;1.63;;;19.90;99.90;;;;;;5070511;28;20403;-73
2023/08/03 12:53:32;;;;;;;10.48;1.45;;;19.90;99.90;;;;;;5074837;28;20077;-73
2023/08/03 12:55:57;;;;;;;5.50;1.10;;;19.90;99.90;;;;;;5052774;28;20387;-74
2023/08/03 12:58:23;;;;;;;11.73;1.20;;;20.10;99.90;;;;;;5078476;28;20096;-72
2023/08/03 13:00:48;;;;;;;6.25;1.50;;;20.20;99.90;;;;;;5070233;28;20028;-72
2023/08/03 13:03:16;;;;;;;3.97;0.88;;;20.40;99.90;;;;;;5077484;28;20032;-72
2023/08/03 13:05:41;;;;;;;4.85;0.93;;;20.30;99.90;;;;;;5070881;28;20377;-72
2023/08/03 13:08:07;;;;;;;8.18;1.25;;;20.10;99.90;;;;;;5066187;28;20035;-73
2023/08/03 13:10:33;;;;;;;7.20;1.10;;;19.70;99.90;;;;;;5070589;28;20141;-73
2023/08/03 13:12:59;;;;;;;4.90;1.00;;;19.30;99.90;;;;;;5073848;28;20078;-74
2023/08/03 13:15:24;;;;;;;3.13;0.77;;;19.10;99.90;;;;;;5066925;28;20561;-72
2023/08/03 13:17:50;;;;;;;5.20;0.95;;;19.00;99.90;;;;;;5066843;28;20029;-72
2023/08/03 13:20:16;;;;;;;4.65;0.90;;;19.00;99.90;;;;;;5066459;28;20396;-71
2023/08/03 13:22:41;;;;;;;5.00;0.77;;;19.00;99.90;;;;;;5068718;28;20035;-72
2023/08/03 13:25:07;;;;;;;11.80;2.15;;;19.00;99.90;;;;;;5072459;28;20066;-72
2023/08/03 13:27:34;;;;;;;11.48;0.70;;;19.00;99.90;;;;;;5073272;28;20031;-71
2023/08/03 13:29:59;;;;;;;5.70;0.80;;;19.10;99.90;;;;;;5070839;28;20032;-71
2023/08/03 13:32:25;;;;;;;15.90;1.35;;;19.30;99.90;;;;;;5070268;28;20037;-72
2023/08/03 13:34:51;;;;;;;5.65;1.13;;;19.40;99.90;;;;;;5065738;28;20033;-72
2023/08/03 13:37:16;;;;;;;7.50;1.77;;;19.50;99.90;;;;;;5059345;28;20453;-71
2023/08/03 13:39:42;;;;;;;12.20;0.93;;;19.60;99.90;;;;;;5073421;28;20109;-71